Archival Weather

Alykel

Alykel, Russia (UOOO)

Report from: Tuesday, November 21, 2023 12:00 PM UTC
Current time: Friday, July 19, 2024 1:56 AM UTC

Current weather – Weather history – Daily summaries
Weather forecast

Present weatherLight snow, drifting snow
Temperature-26.0°C (-14.8°F)
Wind chill-37.4°C (-35.4°F)
Dew point-29.0°C (-20.2°F)
Winds 9.7 kts (5 m/s, 11.2 mph) South-Southwest (200°)
Visibility3 mi. (4.8 km)
Clouds Ceiling: Overcast 2,200 ft. (671 m)
Altimeter30.27 in.Hg (1025 mB)
Precip. events QF 11:32 PM
Relative humidity76 %
Density altitude-5,723 ft. (-1,744 m)
Remarks No significant changes expected in the next two hours
Flight conditions Instrument Meteorological Conditions
Raw dataUOOO 211200Z 20005MPS 4800 -SN DRSN OVC022 M26/M29 Q1025 R19/35//60 NOSIG RMK QFE752/1003
An error has occurred. This application may no longer respond until reloaded. Reload 🗙